Friday, October 19, 2018, 11:33 AM EDT
Back to Local

KBED, Bedford Hanscom Field

Location: Concord, MA, United States Lat: 42.467
Local Time: 11:33 AM EDT (15:33 GMT) Lon: -71.3
Time Zone: US/Eastern Elev: 134 ft

Show me the last for .
Show Decoded

2018-10-19 10:56 METAR KBED 191456Z 26010G16KT 10SM FEW200 11/01 A3015 RMK AO2 SLP226 T01060006
                 58023 =
2018-10-19 09:56 METAR KBED 191356Z 24009KT 10SM SCT200 08/M01 A3019 RMK AO2 SLP237 T00831006 =
2018-10-19 08:56 METAR KBED 191256Z 24007KT 10SM SCT120 04/M02 A3021 RMK AO2 SLP246 T00391022 =
2018-10-19 07:56 METAR KBED 191156Z 21006KT 10SM CLR 01/M03 A3022 RMK AO2 SLP250 T00111028 10011
                 21022 55006 =
2018-10-19 06:56 METAR KBED 191056Z 21005KT 10SM SCT120 00/M03 A3022 RMK AO2 SLP249 T00001033 =
2018-10-19 05:56 METAR KBED 190956Z AUTO 00000KT 10SM CLR M01/M04 A3023 RMK AO2 SLP252 T10061039
                 =
2018-10-19 04:56 METAR KBED 190856Z AUTO 24006KT 10SM CLR M01/M04 A3024 RMK AO2 SLP256 T10061039
                 55005 =
2018-10-19 03:56 METAR KBED 190756Z AUTO 00000KT 10SM CLR M01/M04 A3024 RMK AO2 SLP255 T10111039
                 =
2018-10-19 02:56 METAR KBED 190656Z AUTO 27003KT 10SM CLR M02/M04 A3024 RMK AO2 SLP257 T10171044
                 =
2018-10-19 01:56 METAR KBED 190556Z AUTO 26004KT 10SM CLR 01/M05 A3026 RMK AO2 SLP260 T00061050
                 10028 21006 58003 =
2018-10-19 00:56 METAR KBED 190456Z AUTO 25003KT 10SM CLR 01/M06 A3026 RMK AO2 SLP262 T00111056
                 400830000 =
2018-10-18 23:56 METAR KBED 190356Z AUTO 25007KT 10SM CLR 02/M06 A3026 RMK AO2 SLP261 T00221056 =
2018-10-18 22:56 METAR KBED 190256Z AUTO 25007KT 10SM CLR 02/M06 A3026 RMK AO2 SLP263 T00171061
                 50005 =
2018-10-18 21:56 METAR KBED 190156Z 24006KT 10SM CLR 01/M06 A3026 RMK AO2 SLP264 T00111056 =
2018-10-18 20:56 METAR KBED 190056Z 00000KT 10SM CLR 01/M06 A3026 RMK AO2 SLP262 T00061056 =
2018-10-18 19:56 METAR KBED 182356Z 20003KT 10SM CLR 02/M06 A3025 RMK AO2 SLP259 T00221061 10083
                 20017 51016 =
2018-10-18 18:56 METAR KBED 182256Z 25005KT 10SM CLR 04/M07 A3024 RMK AO2 SLP254 T00391067 =
2018-10-18 17:56 METAR KBED 182156Z 29005KT 10SM CLR 05/M08 A3022 RMK AO2 SLP250 T00501083 =
2018-10-18 16:56 METAR KBED 182056Z 28011G17KT 10SM CLR 07/M09 A3020 RMK AO2 SLP241 T00721089
                 53003 =
2018-10-18 15:56 METAR KBED 181956Z 28009G17KT 10SM CLR 08/M08 A3019 RMK AO2 SLP238 T00831083 =
2018-10-18 14:56 METAR KBED 181856Z 30017G21KT 10SM FEW070 08/M09 A3019 RMK AO2 SLP238 T00781089
                 =
2018-10-18 13:56 METAR KBED 181756Z 29016G22KT 10SM FEW070 08/M08 A3019 RMK AO2 PK WND 29027/1735
                 SLP238 T00781083 10083 20028 58004 =
2018-10-18 12:56 METAR KBED 181656Z 29010G20KT 10SM FEW060 07/M08 A3019 RMK AO2 SLP239 T00721078
                 =
2018-10-18 11:56 METAR KBED 181556Z 28015G21KT 10SM SCT050 07/M08 A3020 RMK AO2 PK WND 29027/1500
                 SLP242 T00671078 =

Support USWX by starting your Amazon purchase here.